MSC Poh Lin — H8FC — position and weather

sailwx.info

Track history (hours):
 
Tides and Currents Weather Stations Pressure Air Temp Water Temp Dewpoint Dewpoint Depression Visibility Wind Speed Wind Dir Waves Ship Positions

MSC Poh Lin

Last reported at 2016-Jan-30 02:33 UTC. Time now 2016-Feb-12 09:54 UTC.
Position N 28°35' W 116°14'.
Warning: this ship's position is 13 days out of date.

Length 294 m; draft 9.7 m.

Type: Ship (hazmat cat A). MMSI: 357405000.

Date/timePositionNaut miles runAvg speedWind from/ knotsBaromVisibWave heightAir tempDewpointWater temp
2016-Jan-30 02:33N 28°35' W 116°14'2222.0
2016-Jan-30 01:33N 28°56' W 116°22'19821.0
2016-Jan-29 16:05N 32°05' W 117°34'1019.4
2016-Jan-29 15:33N 32°15' W 117°38'1212.3
2016-Jan-29 14:33N 32°26' W 117°42'3 3.3
2016-Jan-29 13:33N 32°29' W 117°45'1414.3
2016-Jan-29 12:33N 32°42' W 117°51'1616.0
2016-Jan-29 11:33N 32°57' W 117°57'1313.3
2016-Jan-29 10:33N 33°10' W 118°02'1211.8
2016-Jan-29 09:33N 33°21' W 118°07'1211.7
2016-Jan-29 08:34N 33°32' W 118°11'1110.8
2016-Jan-29 07:33N 33°43' W 118°11'3 3.3
2016-Jan-29 06:33N 33°45' W 118°14'0 0.0
2016-Jan-29 05:33N 33°45' W 118°14'0 0.0
2016-Jan-29 04:33N 33°45' W 118°14'0 0.0
2016-Jan-29 03:33N 33°45' W 118°14'0 0.0
2016-Jan-29 02:33N 33°45' W 118°14'0 0.1
2016-Jan-29 01:33N 33°45' W 118°14'0 0.0
2016-Jan-29 00:33N 33°45' W 118°14'0 0.0
2016-Jan-28 23:33N 33°45' W 118°14'0 0.0
2016-Jan-28 22:33N 33°45' W 118°14'0 0.1
2016-Jan-28 21:33N 33°45' W 118°14'0 0.1
2016-Jan-28 20:33N 33°45' W 118°14'0 0.0
2016-Jan-28 19:33N 33°45' W 118°14'0 0.0
2016-Jan-28 18:33N 33°45' W 118°14'0 0.0
2016-Jan-28 17:33N 33°45' W 118°14'0 0.0
2016-Jan-28 16:33N 33°45' W 118°14'0 0.1
2016-Jan-28 15:33N 33°45' W 118°14'0 0.0
2016-Jan-28 14:33N 33°45' W 118°14'0 0.0
2016-Jan-28 13:33N 33°45' W 118°14'0 0.4
2016-Jan-28 12:33N 33°45' W 118°14'7 7.2
2016-Jan-28 11:33N 33°38' W 118°13'9 9.4
2016-Jan-28 10:33N 33°38' W 118°25'10 9.6
2016-Jan-28 09:33N 33°43' W 118°35'9 9.0
2016-Jan-28 08:33N 33°47' W 118°44'9 8.7
2016-Jan-28 07:33N 33°51' W 118°53'9 9.1
2016-Jan-28 06:33N 33°56' W 119°03'9 9.4
2016-Jan-28 05:33N 34°00' W 119°13'9 9.3
2016-Jan-28 04:33N 34°04' W 119°23'9 9.4
2016-Jan-28 03:33N 34°06' W 119°34'49 9.7
2016-Jan-27 22:31N 34°19' W 120°31'1010.3
2016-Jan-27 21:33N 34°22' W 120°42'1010.0
2016-Jan-27 20:33N 34°26' W 120°53'1110.5
2016-Jan-27 19:33N 34°35' W 121°00'1110.8
2016-Jan-27 18:33N 34°44' W 121°07'1111.2
2016-Jan-27 17:33N 34°53' W 121°15'1110.8
2016-Jan-27 16:33N 35°03' W 121°22'1111.2
2016-Jan-27 15:33N 35°12' W 121°29'13011.8
2016-Jan-27 04:33N 37°07' W 122°43'1312.4
2016-Jan-27 03:32N 37°20' W 122°44'1212.8
2016-Jan-27 02:33N 37°32' W 122°44'1212.4
2016-Jan-27 01:33N 37°45' W 122°41'1414.5
2016-Jan-27 00:33N 37°50' W 122°24'4 4.2
2016-Jan-26 23:32N 37°49' W 122°19'0 0.0
2016-Jan-26 22:32N 37°49' W 122°19'0 0.0
2016-Jan-26 21:32N 37°49' W 122°19'0 0.0
2016-Jan-26 20:32N 37°49' W 122°19'0 0.0
2016-Jan-26 19:32N 37°49' W 122°19'0 0.0
2016-Jan-26 18:32N 37°49' W 122°19'0 0.0
2016-Jan-26 17:32N 37°49' W 122°19'0 0.0
2016-Jan-26 16:32N 37°49' W 122°19'0 0.0
2016-Jan-26 15:32N 37°49' W 122°19'0 0.0
2016-Jan-26 14:32N 37°49' W 122°19'0 0.0
2016-Jan-26 13:32N 37°49' W 122°19'0 0.0
2016-Jan-26 12:32N 37°49' W 122°19'0 0.0
2016-Jan-26 11:32N 37°49' W 122°19'0 0.0
2016-Jan-26 10:32N 37°49' W 122°19'0 0.0
2016-Jan-26 09:32N 37°49' W 122°19'0 0.0
2016-Jan-26 08:32N 37°49' W 122°19'0 0.0
2016-Jan-26 07:32N 37°49' W 122°19'0 0.0
2016-Jan-26 06:32N 37°49' W 122°19'0 0.0
2016-Jan-26 05:32N 37°49' W 122°19'0 0.0
2016-Jan-26 04:32N 37°49' W 122°19'0 0.0
2016-Jan-26 03:32N 37°49' W 122°19'0 0.0
2016-Jan-26 02:32N 37°49' W 122°19'0 0.0
2016-Jan-26 01:33N 37°49' W 122°19'5 5.3
2016-Jan-26 00:34N 37°49' W 122°26'1313.0
2016-Jan-25 23:34N 37°46' W 122°42'1111.4
2016-Jan-25 22:34N 37°50' W 122°55'1111.0
2016-Jan-25 21:34N 37°55' W 123°07'1313.1
2016-Jan-25 20:33N 38°05' W 123°19'1413.6
2016-Jan-25 19:34N 38°16' W 123°28'1413.5
2016-Jan-25 18:33N 38°28' W 123°36'1413.7
2016-Jan-25 17:33N 38°40' W 123°44'40715.1
2016-Jan-24 14:33N 45°23' W 125°05'1615.8
2016-Jan-24 13:33N 45°39' W 125°07'1615.8
2016-Jan-24 12:33N 45°55' W 125°08'1615.6
2016-Jan-24 11:33N 46°10' W 125°09'1615.6
2016-Jan-24 10:33N 46°26' W 125°10'1615.6
2016-Jan-24 09:33N 46°41' W 125°11'1615.9
2016-Jan-24 08:33N 46°57' W 125°12'9413.4
2016-Jan-24 01:32N 48°31' W 125°00'4916.1
2016-Jan-23 22:31N 48°17' W 123°49'1314.1
2016-Jan-23 21:34N 48°18' W 123°29'1110.8
2016-Jan-23 20:34N 48°24' W 123°16'1515.0
2016-Jan-23 19:34N 48°39' W 123°15'1414.0
2016-Jan-23 18:34N 48°50' W 123°02'1212.1
2016-Jan-23 17:34N 49°00' W 123°09'1 1.0
2016-Jan-23 16:32N 49°01' W 123°09'0 0.0
2016-Jan-23 15:32N 49°01' W 123°09'0 0.0
2016-Jan-23 14:32N 49°01' W 123°09'0 0.0
2016-Jan-23 13:32N 49°01' W 123°09'0 0.0
2016-Jan-23 12:32N 49°01' W 123°09'0 0.0
2016-Jan-23 11:32N 49°01' W 123°09'0 0.0
2016-Jan-23 10:32N 49°01' W 123°09'0 0.0
2016-Jan-23 09:32N 49°01' W 123°09'0 0.0
2016-Jan-23 08:32N 49°01' W 123°09'0 0.0
2016-Jan-23 07:32N 49°01' W 123°09'0 0.0
2016-Jan-23 06:32N 49°01' W 123°09'0 0.0
2016-Jan-23 05:32N 49°01' W 123°09'0 0.0
2016-Jan-23 04:32N 49°01' W 123°09'0 0.0
2016-Jan-23 03:32N 49°01' W 123°09'0 0.0
2016-Jan-23 02:32N 49°01' W 123°09'0 0.0
2016-Jan-23 01:32N 49°01' W 123°09'0 0.0
2016-Jan-23 00:32N 49°01' W 123°09'0 0.0
2016-Jan-22 23:32N 49°01' W 123°09'0 0.0
2016-Jan-22 22:32N 49°01' W 123°09'0 0.0
2016-Jan-22 21:32N 49°01' W 123°09'0 0.0
2016-Jan-22 20:29N 49°01' W 123°09'0 0.0
2016-Jan-22 19:32N 49°01' W 123°09'1 1.1
2016-Jan-22 18:33N 49°00' W 123°09'1 1.1
2016-Jan-22 17:33N 48°60' W 123°11'2 2.2
2016-Jan-22 16:33N 48°58' W 123°09'8 8.4
2016-Jan-22 15:33N 48°51' W 123°02'1313.1
2016-Jan-22 14:33N 48°41' W 123°15'1616.3
2016-Jan-22 13:33N 48°25' W 123°10'8 7.9
2016-Jan-22 12:33N 48°21' W 123°20'0 0.1
2016-Jan-22 11:33N 48°21' W 123°20'0 0.1
2016-Jan-22 10:24N 48°21' W 123°20'0 0.0
2016-Jan-22 09:33N 48°21' W 123°20'0 0.0
2016-Jan-22 08:27N 48°21' W 123°20'0 0.0
2016-Jan-22 07:33N 48°21' W 123°20'0 0.0
2016-Jan-22 06:33N 48°21' W 123°20'0 0.1
2016-Jan-22 05:33N 48°21' W 123°21'0 0.1
2016-Jan-22 04:33N 48°21' W 123°21'0 0.1
2016-Jan-22 03:33N 48°21' W 123°21'0 0.0
2016-Jan-22 02:33N 48°21' W 123°21'0 0.0
2016-Jan-22 01:33N 48°21' W 123°21'0 0.1
2016-Jan-22 00:33N 48°21' W 123°21'0 0.0
2016-Jan-21 23:33N 48°21' W 123°21'0 0.1
2016-Jan-21 22:33N 48°21' W 123°21'0 0.1
2016-Jan-21 21:33N 48°21' W 123°21'0 0.0
2016-Jan-21 20:33N 48°21' W 123°21'0 0.1
2016-Jan-21 19:33N 48°21' W 123°21'0 0.0
2016-Jan-21 18:33N 48°21' W 123°21'0 0.0
2016-Jan-21 17:33N 48°21' W 123°21'0 0.0
2016-Jan-21 16:33N 48°21' W 123°21'0 0.0
2016-Jan-21 15:33N 48°21' W 123°21'0 0.0
2016-Jan-21 14:33N 48°21' W 123°21'0 0.0
2016-Jan-21 13:33N 48°21' W 123°21'0 0.1
2016-Jan-21 12:33N 48°21' W 123°21'0 0.1
2016-Jan-21 11:33N 48°21' W 123°21'0 0.0
2016-Jan-21 10:33N 48°21' W 123°21'0 0.1
2016-Jan-21 09:33N 48°21' W 123°21'0 0.0
2016-Jan-21 08:33N 48°21' W 123°21'0 0.0
2016-Jan-21 07:33N 48°21' W 123°21'0 0.0
2016-Jan-21 06:33N 48°21' W 123°21'0 0.0
2016-Jan-21 05:33N 48°21' W 123°21'0 0.1
2016-Jan-21 04:33N 48°21' W 123°21'0 0.0
2016-Jan-21 03:33N 48°21' W 123°21'0 0.0
2016-Jan-21 02:33N 48°21' W 123°21'0 0.0
2016-Jan-21 01:33N 48°21' W 123°21'0 0.0
2016-Jan-21 00:33N 48°21' W 123°21'0 0.0
2016-Jan-20 23:33N 48°21' W 123°21'0 0.0
2016-Jan-20 22:33N 48°21' W 123°21'0 0.0
2016-Jan-20 21:33N 48°21' W 123°21'0 0.1
2016-Jan-20 20:33N 48°21' W 123°21'0 0.0
2016-Jan-20 19:31N 48°21' W 123°21'0 0.0
2016-Jan-20 18:31N 48°21' W 123°21'2 2.4
2016-Jan-20 17:33N 48°19' W 123°23'1110.9
2016-Jan-20 16:33N 48°08' W 123°23'1514.9
2016-Jan-20 15:33N 48°12' W 123°01'1616.2
2016-Jan-20 14:33N 48°05' W 122°39'1717.0
2016-Jan-20 13:34N 47°51' W 122°27'1414.1
2016-Jan-20 12:33N 47°37' W 122°23'2 1.9
2016-Jan-20 11:32N 47°36' W 122°21'0 0.0
2016-Jan-20 10:32N 47°36' W 122°21'0 0.0
2016-Jan-20 09:32N 47°36' W 122°21'0 0.0
2016-Jan-20 08:32N 47°36' W 122°21'0 0.0
2016-Jan-20 07:32N 47°36' W 122°21'0 0.0
2016-Jan-20 06:32N 47°36' W 122°21'0 0.0
2016-Jan-20 05:32N 47°36' W 122°21'0 0.0
2016-Jan-20 04:32N 47°36' W 122°21'0 0.0
2016-Jan-20 03:32N 47°36' W 122°21'  
Track history (hours):
 
Tides and Currents Weather Stations Pressure Air Temp Water Temp Dewpoint Dewpoint Depression Visibility Wind Speed Wind Dir Waves Ship Positions

MSC Poh Lin

Last reported at 2016-Jan-30 02:33 UTC. Time now 2016-Feb-12 09:54 UTC.
Position N 28°35' W 116°14'.
Warning: this ship's position is 13 days out of date.

Length 294 m; draft 9.7 m.

Type: Ship (hazmat cat A). MMSI: 357405000.

Date/timePositionNaut miles runAvg speedWind from/ knotsBaromVisibWave heightAir tempDewpointWater temp
2016-Jan-30 02:33N 28°35' W 116°14'2222.0
2016-Jan-30 01:33N 28°56' W 116°22'19821.0
2016-Jan-29 16:05N 32°05' W 117°34'1019.4
2016-Jan-29 15:33N 32°15' W 117°38'1212.3
2016-Jan-29 14:33N 32°26' W 117°42'3 3.3
2016-Jan-29 13:33N 32°29' W 117°45'1414.3
2016-Jan-29 12:33N 32°42' W 117°51'1616.0
2016-Jan-29 11:33N 32°57' W 117°57'1313.3
2016-Jan-29 10:33N 33°10' W 118°02'1211.8
2016-Jan-29 09:33N 33°21' W 118°07'1211.7
2016-Jan-29 08:34N 33°32' W 118°11'1110.8
2016-Jan-29 07:33N 33°43' W 118°11'3 3.3
2016-Jan-29 06:33N 33°45' W 118°14'0 0.0
2016-Jan-29 05:33N 33°45' W 118°14'0 0.0
2016-Jan-29 04:33N 33°45' W 118°14'0 0.0
2016-Jan-29 03:33N 33°45' W 118°14'0 0.0
2016-Jan-29 02:33N 33°45' W 118°14'0 0.1
2016-Jan-29 01:33N 33°45' W 118°14'0 0.0
2016-Jan-29 00:33N 33°45' W 118°14'0 0.0
2016-Jan-28 23:33N 33°45' W 118°14'0 0.0
2016-Jan-28 22:33N 33°45' W 118°14'0 0.1
2016-Jan-28 21:33N 33°45' W 118°14'0 0.1
2016-Jan-28 20:33N 33°45' W 118°14'0 0.0
2016-Jan-28 19:33N 33°45' W 118°14'0 0.0
2016-Jan-28 18:33N 33°45' W 118°14'0 0.0
2016-Jan-28 17:33N 33°45' W 118°14'0 0.0
2016-Jan-28 16:33N 33°45' W 118°14'0 0.1
2016-Jan-28 15:33N 33°45' W 118°14'0 0.0
2016-Jan-28 14:33N 33°45' W 118°14'0 0.0
2016-Jan-28 13:33N 33°45' W 118°14'0 0.4
2016-Jan-28 12:33N 33°45' W 118°14'7 7.2
2016-Jan-28 11:33N 33°38' W 118°13'9 9.4
2016-Jan-28 10:33N 33°38' W 118°25'10 9.6
2016-Jan-28 09:33N 33°43' W 118°35'9 9.0
2016-Jan-28 08:33N 33°47' W 118°44'9 8.7
2016-Jan-28 07:33N 33°51' W 118°53'9 9.1
2016-Jan-28 06:33N 33°56' W 119°03'9 9.4
2016-Jan-28 05:33N 34°00' W 119°13'9 9.3
2016-Jan-28 04:33N 34°04' W 119°23'9 9.4
2016-Jan-28 03:33N 34°06' W 119°34'49 9.7
2016-Jan-27 22:31N 34°19' W 120°31'1010.3
2016-Jan-27 21:33N 34°22' W 120°42'1010.0
2016-Jan-27 20:33N 34°26' W 120°53'1110.5
2016-Jan-27 19:33N 34°35' W 121°00'1110.8
2016-Jan-27 18:33N 34°44' W 121°07'1111.2
2016-Jan-27 17:33N 34°53' W 121°15'1110.8
2016-Jan-27 16:33N 35°03' W 121°22'1111.2
2016-Jan-27 15:33N 35°12' W 121°29'13011.8
2016-Jan-27 04:33N 37°07' W 122°43'1312.4
2016-Jan-27 03:32N 37°20' W 122°44'1212.8
2016-Jan-27 02:33N 37°32' W 122°44'1212.4
2016-Jan-27 01:33N 37°45' W 122°41'1414.5
2016-Jan-27 00:33N 37°50' W 122°24'4 4.2
2016-Jan-26 23:32N 37°49' W 122°19'0 0.0
2016-Jan-26 22:32N 37°49' W 122°19'0 0.0
2016-Jan-26 21:32N 37°49' W 122°19'0 0.0
2016-Jan-26 20:32N 37°49' W 122°19'0 0.0
2016-Jan-26 19:32N 37°49' W 122°19'0 0.0
2016-Jan-26 18:32N 37°49' W 122°19'0 0.0
2016-Jan-26 17:32N 37°49' W 122°19'0 0.0
2016-Jan-26 16:32N 37°49' W 122°19'0 0.0
2016-Jan-26 15:32N 37°49' W 122°19'0 0.0
2016-Jan-26 14:32N 37°49' W 122°19'0 0.0
2016-Jan-26 13:32N 37°49' W 122°19'0 0.0
2016-Jan-26 12:32N 37°49' W 122°19'0 0.0
2016-Jan-26 11:32N 37°49' W 122°19'0 0.0
2016-Jan-26 10:32N 37°49' W 122°19'0 0.0
2016-Jan-26 09:32N 37°49' W 122°19'0 0.0
2016-Jan-26 08:32N 37°49' W 122°19'0 0.0
2016-Jan-26 07:32N 37°49' W 122°19'0 0.0
2016-Jan-26 06:32N 37°49' W 122°19'0 0.0
2016-Jan-26 05:32N 37°49' W 122°19'0 0.0
2016-Jan-26 04:32N 37°49' W 122°19'0 0.0
2016-Jan-26 03:32N 37°49' W 122°19'0 0.0
2016-Jan-26 02:32N 37°49' W 122°19'0 0.0
2016-Jan-26 01:33N 37°49' W 122°19'5 5.3
2016-Jan-26 00:34N 37°49' W 122°26'1313.0
2016-Jan-25 23:34N 37°46' W 122°42'1111.4
2016-Jan-25 22:34N 37°50' W 122°55'1111.0
2016-Jan-25 21:34N 37°55' W 123°07'1313.1
2016-Jan-25 20:33N 38°05' W 123°19'1413.6
2016-Jan-25 19:34N 38°16' W 123°28'1413.5
2016-Jan-25 18:33N 38°28' W 123°36'1413.7
2016-Jan-25 17:33N 38°40' W 123°44'40715.1
2016-Jan-24 14:33N 45°23' W 125°05'1615.8
2016-Jan-24 13:33N 45°39' W 125°07'1615.8
2016-Jan-24 12:33N 45°55' W 125°08'1615.6
2016-Jan-24 11:33N 46°10' W 125°09'1615.6
2016-Jan-24 10:33N 46°26' W 125°10'1615.6
2016-Jan-24 09:33N 46°41' W 125°11'1615.9
2016-Jan-24 08:33N 46°57' W 125°12'9413.4
2016-Jan-24 01:32N 48°31' W 125°00'4916.1
2016-Jan-23 22:31N 48°17' W 123°49'1314.1
2016-Jan-23 21:34N 48°18' W 123°29'1110.8
2016-Jan-23 20:34N 48°24' W 123°16'1515.0
2016-Jan-23 19:34N 48°39' W 123°15'1414.0
2016-Jan-23 18:34N 48°50' W 123°02'1212.1
2016-Jan-23 17:34N 49°00' W 123°09'1 1.0
2016-Jan-23 16:32N 49°01' W 123°09'0 0.0
2016-Jan-23 15:32N 49°01' W 123°09'0 0.0
2016-Jan-23 14:32N 49°01' W 123°09'0 0.0
2016-Jan-23 13:32N 49°01' W 123°09'0 0.0
2016-Jan-23 12:32N 49°01' W 123°09'0 0.0
2016-Jan-23 11:32N 49°01' W 123°09'0 0.0
2016-Jan-23 10:32N 49°01' W 123°09'0 0.0
2016-Jan-23 09:32N 49°01' W 123°09'0 0.0
2016-Jan-23 08:32N 49°01' W 123°09'0 0.0
2016-Jan-23 07:32N 49°01' W 123°09'0 0.0
2016-Jan-23 06:32N 49°01' W 123°09'0 0.0
2016-Jan-23 05:32N 49°01' W 123°09'0 0.0
2016-Jan-23 04:32N 49°01' W 123°09'0 0.0
2016-Jan-23 03:32N 49°01' W 123°09'0 0.0
2016-Jan-23 02:32N 49°01' W 123°09'0 0.0
2016-Jan-23 01:32N 49°01' W 123°09'0 0.0
2016-Jan-23 00:32N 49°01' W 123°09'0 0.0
2016-Jan-22 23:32N 49°01' W 123°09'0 0.0
2016-Jan-22 22:32N 49°01' W 123°09'0 0.0
2016-Jan-22 21:32N 49°01' W 123°09'0 0.0
2016-Jan-22 20:29N 49°01' W 123°09'0 0.0
2016-Jan-22 19:32N 49°01' W 123°09'1 1.1
2016-Jan-22 18:33N 49°00' W 123°09'1 1.1
2016-Jan-22 17:33N 48°60' W 123°11'2 2.2
2016-Jan-22 16:33N 48°58' W 123°09'8 8.4
2016-Jan-22 15:33N 48°51' W 123°02'1313.1
2016-Jan-22 14:33N 48°41' W 123°15'1616.3
2016-Jan-22 13:33N 48°25' W 123°10'8 7.9
2016-Jan-22 12:33N 48°21' W 123°20'0 0.1
2016-Jan-22 11:33N 48°21' W 123°20'0 0.1
2016-Jan-22 10:24N 48°21' W 123°20'0 0.0
2016-Jan-22 09:33N 48°21' W 123°20'0 0.0
2016-Jan-22 08:27N 48°21' W 123°20'0 0.0
2016-Jan-22 07:33N 48°21' W 123°20'0 0.0
2016-Jan-22 06:33N 48°21' W 123°20'0 0.1
2016-Jan-22 05:33N 48°21' W 123°21'0 0.1
2016-Jan-22 04:33N 48°21' W 123°21'0 0.1
2016-Jan-22 03:33N 48°21' W 123°21'0 0.0
2016-Jan-22 02:33N 48°21' W 123°21'0 0.0
2016-Jan-22 01:33N 48°21' W 123°21'0 0.1
2016-Jan-22 00:33N 48°21' W 123°21'0 0.0
2016-Jan-21 23:33N 48°21' W 123°21'0 0.1
2016-Jan-21 22:33N 48°21' W 123°21'0 0.1
2016-Jan-21 21:33N 48°21' W 123°21'0 0.0
2016-Jan-21 20:33N 48°21' W 123°21'0 0.1
2016-Jan-21 19:33N 48°21' W 123°21'0 0.0
2016-Jan-21 18:33N 48°21' W 123°21'0 0.0
2016-Jan-21 17:33N 48°21' W 123°21'0 0.0
2016-Jan-21 16:33N 48°21' W 123°21'0 0.0
2016-Jan-21 15:33N 48°21' W 123°21'0 0.0
2016-Jan-21 14:33N 48°21' W 123°21'0 0.0
2016-Jan-21 13:33N 48°21' W 123°21'0 0.1
2016-Jan-21 12:33N 48°21' W 123°21'0 0.1
2016-Jan-21 11:33N 48°21' W 123°21'0 0.0
2016-Jan-21 10:33N 48°21' W 123°21'0 0.1
2016-Jan-21 09:33N 48°21' W 123°21'0 0.0
2016-Jan-21 08:33N 48°21' W 123°21'0 0.0
2016-Jan-21 07:33N 48°21' W 123°21'0 0.0
2016-Jan-21 06:33N 48°21' W 123°21'0 0.0
2016-Jan-21 05:33N 48°21' W 123°21'0 0.1
2016-Jan-21 04:33N 48°21' W 123°21'0 0.0
2016-Jan-21 03:33N 48°21' W 123°21'0 0.0
2016-Jan-21 02:33N 48°21' W 123°21'0 0.0
2016-Jan-21 01:33N 48°21' W 123°21'0 0.0
2016-Jan-21 00:33N 48°21' W 123°21'0 0.0
2016-Jan-20 23:33N 48°21' W 123°21'0 0.0
2016-Jan-20 22:33N 48°21' W 123°21'0 0.0
2016-Jan-20 21:33N 48°21' W 123°21'0 0.1
2016-Jan-20 20:33N 48°21' W 123°21'0 0.0
2016-Jan-20 19:31N 48°21' W 123°21'0 0.0
2016-Jan-20 18:31N 48°21' W 123°21'2 2.4
2016-Jan-20 17:33N 48°19' W 123°23'1110.9
2016-Jan-20 16:33N 48°08' W 123°23'1514.9
2016-Jan-20 15:33N 48°12' W 123°01'1616.2
2016-Jan-20 14:33N 48°05' W 122°39'1717.0
2016-Jan-20 13:34N 47°51' W 122°27'1414.1
2016-Jan-20 12:33N 47°37' W 122°23'2 1.9
2016-Jan-20 11:32N 47°36' W 122°21'0 0.0
2016-Jan-20 10:32N 47°36' W 122°21'0 0.0
2016-Jan-20 09:32N 47°36' W 122°21'0 0.0
2016-Jan-20 08:32N 47°36' W 122°21'0 0.0
2016-Jan-20 07:32N 47°36' W 122°21'0 0.0
2016-Jan-20 06:32N 47°36' W 122°21'0 0.0
2016-Jan-20 05:32N 47°36' W 122°21'0 0.0
2016-Jan-20 04:32N 47°36' W 122°21'0 0.0
2016-Jan-20 03:32N 47°36' W 122°21'  

Dump ship's entire track history